Portada
METAR-TAF:

METAR-TAF

Aeroports :

Chiang Mai, Tailàndia

latitud: 18-47N, longitud: 098-59E, altitud: 312 m

Observació

L'informe es va fer fa 36 minuts, a les 21:00 UTC
Vent calma
Temperatura 22°C
Humitat 94%
Pressió 1015 hPa
Visibilitat 10 km o més
Escasses núvols a una alçada de 3500 ft

METAR: VTCC 192100Z 00000KT 9999 FEW035 22/21 Q1015 NOSIG

Hora: 04:36 (21:36 UTC)

Pronòstic

L'informe es va fer fa 4 hores i 36 minuts, a les 17:00 UTC
Pronòstic vàlid del 19 a les 18 UTC al 20 a les 24 UTC
Vent 4 kt del Oest
Visibilitat 10 km o més
Escasses núvols a una alçada de 3500 ft

TAF: VTCC 191700Z 1918/2024 27004KT 9999 FEW035

Observacions i pronòstics meteorològics de més de 4000 aeroports (METAR i TAF).

Les estacions disponibles són els punts grocs i vermells al mapa.

Posi el ratolí al punt desitjat per veure el nom de l'estació.

Feu clic per veure les observacions i els pronòstics meteorològics.

Per canviar el mapa: feu clic els botons verds amb una creu de color negre per apropar; al botó verd amb un guió per allunyar la imatge; o en les fletxes verdes per a mapes adjacents.


METAR-TAF: